Brampton, Michigan
Current Conditions -  °F | °C
As of 2:55 AM on Friday 24 Oct 2014 (Local Time) from KESC Reporting Station
Overcast Overcast  
Wind Chill: 44°   Ceiling: 500
Heat Index: 46°   Visibility: 2.5mi
Dew Point: 45°   Wind: 5mph
Humidity: 93%   Direction: 230°SW
Pressure: 30"   Gusts: NA
Location:  45.8921°N, 87.0533°W
Report Text: KESC 240655Z AUTO 23004KT 2 1/2SM BKN005 BKN013 OVC017 08/07 A3000 RMK AO1
Loading
Personal Weather Stations






























Interactive Weather Map
Tropical Storm Tracking
New forecast layout! Learn more

10-Day Weather Forecast

Advertisements
Track Severe Weather on mobile